Selma, Virginia
Current Conditions -  °F | °C
As of 9:35 AM on Monday 26 Jan 2015 (Local Time) from KLWB Reporting Station
Haze Haze  
Wind Chill: 35°   Ceiling: 2900
Heat Index: 35°   Visibility: 4mi
Dew Point: 34°   Wind: 0mph
Humidity: 96%   Direction: NA
Pressure: 29.64"   Gusts: NA
Location:  37.8°N, 79.84°W
Report Text: KLWB 261435Z AUTO 00000KT 4SM BR OVC029 02/01 A2964 RMK AO2 T00180012
Loading
Personal Weather Stations






























Interactive Weather Map New forecast layout! Learn more

10-Day Weather Forecast

Advertisements
Track Severe Weather on mobile